Time;durP1;ratioP1;P1;durP2;ratioP2;P2;SDS_P1;SDS_P2;PMS_P1;PMS_P2;Temp;Humidity;BMP_temperature;BMP_pressure;BME280_temperature;BME280_humidity;BME280_pressure;Samples;Min_cycle;Max_cycle;Signal;HPM_P1;HPM_P2
2022/08/24 00:00:08;;;;;;;9.48;7.68;;;;;;;23.59;71.39;99276.75;5049047;28;20021;-44
2022/08/24 00:02:33;;;;;;;12.50;8.75;;;;;;;23.01;73.53;99270.66;5049361;28;20029;-43
2022/08/24 00:04:59;;;;;;;11.07;8.02;;;;;;;22.87;74.23;99266.34;5049356;28;20044;-43
2022/08/24 00:07:24;;;;;;;9.35;7.10;;;;;;;22.76;74.76;99269.19;5049275;28;20098;-43
2022/08/24 00:09:49;;;;;;;10.27;7.60;;;;;;;22.70;73.73;99273.09;5049121;28;20021;-44
2022/08/24 00:12:16;;;;;;;13.93;8.10;;;;;;;23.28;71.85;99280.00;5049262;28;20071;-43
2022/08/24 00:14:42;;;;;;;11.93;8.25;;;;;;;22.45;74.20;99290.56;5048968;28;20080;-42
2022/08/24 00:17:08;;;;;;;10.82;8.48;;;;;;;22.53;74.45;99286.38;5048758;28;20113;-45
2022/08/24 00:19:33;;;;;;;12.45;8.55;;;;;;;22.60;74.71;99284.91;5049046;28;20017;-44
2022/08/24 00:21:59;;;;;;;15.00;8.93;;;;;;;22.86;72.61;99281.78;5048921;28;20048;-44
2022/08/24 00:24:25;;;;;;;11.43;8.60;;;;;;;22.62;73.76;99282.69;5048957;28;20134;-44
2022/08/24 00:26:52;;;;;;;11.30;8.80;;;;;;;22.46;75.00;99278.59;5048913;28;20036;-43
2022/08/24 00:29:20;;;;;;;14.70;8.52;;;;;;;22.34;75.11;99280.94;5048888;28;20491;-43
2022/08/24 00:31:46;;;;;;;12.40;7.97;;;;;;;22.49;74.52;99286.16;5047265;28;20402;-44
2022/08/24 00:34:12;;;;;;;10.80;8.63;;;;;;;22.61;73.54;99281.06;5051757;28;20502;-45
2022/08/24 00:36:39;;;;;;;10.13;7.82;;;;;;;22.22;75.31;99279.44;5052663;28;20392;-46
2022/08/24 00:39:05;;;;;;;12.23;8.35;;;;;;;22.18;75.21;99283.03;5052780;28;20025;-47
2022/08/24 00:41:30;;;;;;;9.85;7.75;;;;;;;22.27;74.69;99278.59;5052303;28;20025;-47
2022/08/24 00:44:02;;;;;;;13.45;8.02;;;;;;;22.44;74.16;99286.22;5052516;28;20472;-45
2022/08/24 00:46:50;;;;;;;10.45;8.60;;;;;;;22.42;73.75;99285.72;5052637;28;20048;-44
2022/08/24 00:49:36;;;;;;;10.05;8.15;;;;;;;22.51;73.48;99294.00;5049131;28;20037;-45
2022/08/24 00:52:09;;;;;;;13.27;7.85;;;;;;;22.32;74.30;99294.00;5052371;28;20190;-44
2022/08/24 00:54:43;;;;;;;11.68;8.00;;;;;;;22.41;73.83;99289.53;5052212;28;20017;-45
2022/08/24 00:57:10;;;;;;;10.73;7.90;;;;;;;22.39;73.44;99294.41;5067412;28;20184;-44
2022/08/24 00:59:45;;;;;;;8.38;7.55;;;;;;;22.04;74.55;99288.34;5072228;28;20384;-45
2022/08/24 01:02:15;;;;;;;10.55;7.97;;;;;;;22.16;74.42;99296.06;5071885;28;20020;-43
2022/08/24 01:04:50;;;;;;;10.73;8.23;;;;;;;22.29;74.16;99294.56;5071874;28;20017;-43
2022/08/24 01:07:16;;;;;;;11.35;7.30;;;;;;;22.39;73.35;99284.41;5071794;28;20103;-43
2022/08/24 01:09:42;;;;;;;10.00;7.60;;;;;;;22.54;72.58;99287.97;5072147;28;20100;-43
2022/08/24 01:12:08;;;;;;;9.15;8.00;;;;;;;22.93;70.62;99284.94;5071670;28;20104;-42
2022/08/24 01:14:36;;;;;;;10.30;7.63;;;;;;;22.60;72.18;99290.31;5071622;28;20094;-42
2022/08/24 01:19:53;;;;;;;10.80;7.68;;;;;;;22.52;72.35;99293.69;5052791;28;20126;-46
2022/08/24 01:22:47;;;;;;;26.08;21.45;;;;;;;22.62;72.27;99293.53;5052562;28;20047;-45
2022/08/24 01:25:13;;;;;;;20.35;16.67;;;;;;;22.58;71.91;99294.41;5052128;28;20025;-43
2022/08/24 01:27:40;;;;;;;14.25;9.43;;;;;;;22.66;72.58;99307.31;5052266;28;20061;-47
2022/08/24 01:30:08;;;;;;;10.75;7.80;;;;;;;22.67;73.11;99308.94;5052570;28;20089;-44
2022/08/24 01:32:34;;;;;;;9.23;7.10;;;;;;;22.71;71.83;99309.16;5052474;28;20021;-42
2022/08/24 01:35:00;;;;;;;11.15;8.07;;;;;;;23.08;70.82;99316.47;5051968;28;20806;-45
2022/08/24 01:37:25;;;;;;;9.35;7.57;;;;;;;22.90;71.55;99315.34;5052044;28;20025;-46
2022/08/24 01:39:54;;;;;;;8.45;7.57;;;;;;;22.51;73.32;99319.19;5052234;28;20029;-46
2022/08/24 01:42:20;;;;;;;9.77;7.55;;;;;;;22.48;73.29;99322.47;5052170;28;20051;-43
2022/08/24 01:44:46;;;;;;;9.02;7.22;;;;;;;22.51;73.79;99321.09;5050680;28;20057;-42
2022/08/24 01:47:14;;;;;;;9.00;7.18;;;;;;;22.47;73.11;99320.88;5051802;28;20037;-43
2022/08/24 01:49:42;;;;;;;10.65;7.80;;;;;;;23.25;69.93;99320.50;5051994;28;20369;-44
2022/08/24 01:52:11;;;;;;;12.25;7.38;;;;;;;22.74;72.14;99314.00;5050627;28;20622;-43
2022/08/24 01:54:37;;;;;;;14.10;7.63;;;;;;;22.54;73.06;99320.50;5051760;28;20057;-42
2022/08/24 01:57:03;;;;;;;9.98;7.45;;;;;;;22.49;73.02;99320.59;5066141;28;20072;-44
2022/08/24 01:59:29;;;;;;;10.80;7.90;;;;;;;22.50;73.02;99324.91;5071861;28;20103;-43
2022/08/24 02:02:10;;;;;;;10.18;7.10;;;;;;;22.51;73.18;99308.34;5071695;28;20024;-43
2022/08/24 02:04:36;;;;;;;10.73;7.53;;;;;;;22.52;73.64;99320.00;5071763;28;20396;-44
2022/08/24 02:07:01;;;;;;;10.63;7.75;;;;;;;22.54;73.45;99317.78;5071468;28;20031;-43
2022/08/24 02:09:27;;;;;;;12.80;7.70;;;;;;;22.59;73.11;99320.44;5071779;28;20024;-43
2022/08/24 02:11:53;;;;;;;11.93;8.00;;;;;;;22.69;73.08;99320.28;5071788;28;20017;-43
2022/08/24 02:14:19;;;;;;;11.85;7.97;;;;;;;23.00;70.83;99315.19;5071318;28;20108;-46
2022/08/24 02:16:45;;;;;;;9.48;8.00;;;;;;;22.35;73.98;99317.78;5054103;28;20048;-44
2022/08/24 02:19:11;;;;;;;11.00;8.20;;;;;;;22.30;73.65;99312.44;5051171;28;20071;-42
2022/08/24 02:21:36;;;;;;;12.52;8.02;;;;;;;22.21;74.69;99320.38;5051535;28;20029;-43
2022/08/24 02:24:03;;;;;;;11.38;7.75;;;;;;;22.25;74.25;99316.81;5051334;28;20116;-44
2022/08/24 02:26:28;;;;;;;10.02;8.30;;;;;;;22.23;75.23;99321.69;5050955;28;20027;-42
2022/08/24 02:28:54;;;;;;;12.07;8.20;;;;;;;22.32;74.19;99316.47;5049812;28;20021;-43
2022/08/24 02:31:19;;;;;;;9.88;7.70;;;;;;;22.38;74.47;99319.91;5050113;28;20032;-46
2022/08/24 02:33:45;;;;;;;11.75;8.73;;;;;;;22.92;71.71;99324.00;5050669;28;20025;-44
2022/08/24 02:36:11;;;;;;;9.73;8.10;;;;;;;22.44;73.29;99324.16;5050976;28;20025;-47
2022/08/24 02:38:37;;;;;;;9.95;8.32;;;;;;;22.21;75.02;99326.59;5050572;28;20049;-44
2022/08/24 02:41:03;;;;;;;13.82;8.98;;;;;;;22.22;74.61;99330.13;5051075;28;20025;-44
2022/08/24 02:43:29;;;;;;;11.57;8.80;;;;;;;22.45;72.59;99332.00;5051124;28;20025;-43
2022/08/24 02:45:54;;;;;;;11.73;8.60;;;;;;;22.51;72.49;99329.25;5051388;28;20045;-45
2022/08/24 02:48:20;;;;;;;11.15;8.88;;;;;;;22.35;73.62;99325.91;5050664;28;20542;-46
2022/08/24 02:50:48;;;;;;;12.95;9.32;;;;;;;22.42;74.16;99331.78;5050417;28;20135;-46
2022/08/24 02:53:16;;;;;;;12.90;8.70;;;;;;;22.22;75.37;99341.78;5050807;28;20078;-44
2022/08/24 02:55:43;;;;;;;13.10;8.68;;;;;;;22.23;74.45;99342.56;5053766;28;20081;-44
2022/08/24 02:58:10;;;;;;;11.20;8.68;;;;;;;22.17;74.61;99346.44;5070579;28;20108;-44
2022/08/24 03:00:38;;;;;;;10.13;8.00;;;;;;;22.30;73.97;99353.09;5070335;28;20020;-44
2022/08/24 03:03:06;;;;;;;11.48;8.73;;;;;;;22.40;73.42;99351.06;5070657;28;20062;-44
2022/08/24 03:05:32;;;;;;;11.70;8.38;;;;;;;22.49;72.40;99351.22;5070640;28;20056;-42
2022/08/24 03:07:58;;;;;;;10.60;8.65;;;;;;;22.45;72.48;99358.31;5070564;28;20400;-42
2022/08/24 03:10:24;;;;;;;11.13;8.18;;;;;;;22.48;72.83;99360.44;5070294;28;20020;-43
2022/08/24 03:12:50;;;;;;;15.00;8.60;;;;;;;22.36;73.99;99360.06;5070512;28;20039;-43
2022/08/24 03:15:17;;;;;;;11.35;8.65;;;;;;;22.21;74.52;99364.53;5065371;28;20048;-43
2022/08/24 03:17:43;;;;;;;10.32;9.13;;;;;;;22.36;73.54;99365.50;5050414;28;20353;-44
2022/08/24 03:20:12;;;;;;;11.65;9.00;;;;;;;22.29;73.38;99367.75;5050206;28;20036;-36
2022/08/24 03:22:38;;;;;;;12.32;8.43;;;;;;;22.32;73.58;99367.16;5049858;28;20374;-37
2022/08/24 03:25:05;;;;;;;12.65;8.68;;;;;;;22.20;75.27;99359.41;5050172;28;20029;-37
2022/08/24 03:27:30;;;;;;;16.80;9.68;;;;;;;22.19;75.94;99365.94;5050156;28;20024;-36
2022/08/24 03:29:56;;;;;;;14.23;9.10;;;;;;;22.08;75.91;99359.81;5050008;28;20624;-36
2022/08/24 03:32:21;;;;;;;12.77;8.52;;;;;;;22.14;74.71;99366.81;5050152;28;20035;-36
2022/08/24 03:34:47;;;;;;;16.92;12.18;;;;;;;22.17;75.12;99368.13;5050304;28;20066;-35
2022/08/24 03:37:13;;;;;;;14.43;11.40;;;;;;;22.12;75.25;99373.59;5050431;28;20035;-36
2022/08/24 03:39:39;;;;;;;18.02;14.80;;;;;;;22.19;75.43;99364.03;5050449;28;20487;-36
2022/08/24 03:42:05;;;;;;;22.23;17.63;;;;;;;22.03;76.66;99366.13;5050100;28;20408;-36
2022/08/24 03:44:31;;;;;;;18.17;13.75;;;;;;;21.98;76.66;99365.38;5049641;28;20350;-36
2022/08/24 03:46:57;;;;;;;17.17;12.85;;;;;;;22.02;76.71;99369.09;5049825;28;20094;-36
2022/08/24 03:49:22;;;;;;;18.95;12.43;;;;;;;22.13;75.02;99370.59;5049651;28;20052;-37
2022/08/24 03:51:49;;;;;;;15.10;10.05;;;;;;;22.10;75.73;99359.53;5050275;28;20044;-36
2022/08/24 03:54:15;;;;;;;14.55;9.55;;;;;;;22.12;76.04;99365.47;5050192;28;20105;-36
2022/08/24 03:56:40;;;;;;;14.38;9.57;;;;;;;22.04;76.05;99361.50;5061382;28;20020;-38
2022/08/24 03:59:08;;;;;;;16.80;9.80;;;;;;;22.13;76.04;99361.69;5069839;28;20031;-35
2022/08/24 04:01:33;;;;;;;13.15;9.95;;;;;;;22.16;75.38;99359.19;5070230;28;20032;-36
2022/08/24 04:03:59;;;;;;;13.80;10.02;;;;;;;22.42;74.44;99370.53;5069830;28;20013;-36
2022/08/24 04:06:24;;;;;;;16.83;14.20;;;;;;;22.79;72.79;99379.00;5070047;28;20024;-36
2022/08/24 04:08:51;;;;;;;17.13;11.40;;;;;;;22.80;71.94;99376.00;5072353;28;20100;-40
2022/08/24 04:11:21;;;;;;;15.90;9.93;;;;;;;22.58;72.96;99376.59;5072678;28;20101;-37
2022/08/24 04:13:48;;;;;;;15.93;10.80;;;;;;;22.58;73.30;99379.28;5072715;28;20089;-37
2022/08/24 04:16:19;;;;;;;12.05;9.23;;;;;;;22.72;71.88;99373.16;5061304;28;20480;-37
2022/08/24 04:18:45;;;;;;;13.40;9.30;;;;;;;22.86;71.77;99374.00;5047495;28;20025;-37
2022/08/24 04:21:30;;;;;;;17.23;9.70;;;;;;;23.33;70.14;99368.72;5038676;28;20033;-37
2022/08/24 04:23:56;;;;;;;15.32;9.32;;;;;;;22.82;73.03;99373.78;5033561;28;20049;-36
2022/08/24 04:26:24;;;;;;;14.23;9.52;;;;;;;22.86;72.59;99368.59;5033429;28;20025;-37
2022/08/24 04:28:50;;;;;;;13.23;9.65;;;;;;;22.96;72.51;99373.03;5033408;28;20143;-37
2022/08/24 04:31:17;;;;;;;12.98;9.30;;;;;;;23.03;72.72;99368.88;5032923;28;20026;-37
2022/08/24 04:33:44;;;;;;;15.45;11.23;;;;;;;23.16;71.66;99374.69;5033347;28;20036;-37
2022/08/24 04:36:10;;;;;;;14.25;9.90;;;;;;;23.33;71.69;99376.84;5033032;28;20033;-36
2022/08/24 04:38:36;;;;;;;14.75;9.82;;;;;;;23.36;71.69;99378.97;5033517;28;20453;-36
2022/08/24 04:41:07;;;;;;;13.35;9.50;;;;;;;23.54;70.55;99369.16;5033327;28;20454;-36
2022/08/24 04:43:33;;;;;;;10.48;9.15;;;;;;;23.46;68.41;99380.72;5033246;28;20108;-37
2022/08/24 04:46:03;;;;;;;14.73;10.48;;;;;;;23.43;68.49;99385.63;5033120;28;20473;-37
2022/08/24 04:48:29;;;;;;;14.48;9.93;;;;;;;23.42;68.51;99386.72;5031020;28;20386;-36
2022/08/24 04:51:03;;;;;;;14.38;9.68;;;;;;;23.32;69.48;99388.81;5031427;28;20029;-36
2022/08/24 04:53:30;;;;;;;17.30;10.18;;;;;;;23.39;69.42;99398.19;5032706;28;20029;-36
2022/08/24 04:55:55;;;;;;;13.43;10.02;;;;;;;23.49;69.26;99390.97;5038014;28;20421;-36
2022/08/24 04:58:21;;;;;;;13.20;9.45;;;;;;;23.55;68.60;99389.78;5051888;28;20493;-36
2022/08/24 05:00:46;;;;;;;13.25;9.77;;;;;;;23.40;68.57;99390.84;5052077;28;20488;-37
2022/08/24 05:03:12;;;;;;;14.63;10.07;;;;;;;23.55;68.83;99390.59;5052188;28;20042;-37
2022/08/24 05:05:43;;;;;;;19.20;13.80;;;;;;;23.62;69.01;99384.75;5052423;28;20113;-37
2022/08/24 05:08:09;;;;;;;22.30;17.35;;;;;;;23.81;68.32;99385.53;5051668;28;20485;-37
2022/08/24 05:10:38;;;;;;;39.00;31.63;;;;;;;24.17;67.63;99390.28;5051419;28;20021;-37
2022/08/24 05:13:03;;;;;;;28.08;21.15;;;;;;;24.53;65.48;99386.06;5051209;28;20503;-37
2022/08/24 05:15:30;;;;;;;35.00;27.00;;;;;;;24.23;66.24;99390.97;5051848;28;20128;-37
2022/08/24 05:17:55;;;;;;;26.50;20.30;;;;;;;24.05;67.24;99384.56;5052078;28;20439;-38
2022/08/24 05:20:21;;;;;;;13.75;10.32;;;;;;;24.08;67.34;99380.41;5050400;28;20032;-37
2022/08/24 05:22:46;;;;;;;13.07;8.90;;;;;;;24.13;67.42;99388.47;5052203;28;20024;-38
2022/08/24 05:25:12;;;;;;;15.85;9.05;;;;;;;24.20;66.83;99386.97;5051824;28;20025;-37
2022/08/24 05:27:37;;;;;;;12.52;8.93;;;;;;;24.17;67.51;99373.97;5051661;28;20020;-37
2022/08/24 05:30:04;;;;;;;19.08;9.00;;;;;;;24.27;66.45;99380.31;5051702;28;20238;-36
2022/08/24 05:32:29;;;;;;;12.48;8.32;;;;;;;24.30;66.17;99382.44;5051538;28;20214;-37
2022/08/24 05:34:58;;;;;;;11.35;8.32;;;;;;;24.31;65.81;99384.03;5052017;28;20496;-37
2022/08/24 05:37:23;;;;;;;11.75;8.15;;;;;;;24.42;65.18;99374.56;5051678;28;20587;-37
2022/08/24 05:39:49;;;;;;;13.43;8.20;;;;;;;24.33;65.31;99385.34;5051629;28;20044;-38
2022/08/24 05:42:14;;;;;;;11.70;8.48;;;;;;;24.30;65.35;99377.00;5051802;28;20112;-38
2022/08/24 05:44:39;;;;;;;9.25;7.47;;;;;;;24.27;65.69;99380.31;5051924;28;20024;-37
2022/08/24 05:47:05;;;;;;;10.35;7.65;;;;;;;24.33;65.37;99379.09;5051349;28;20437;-37
2022/08/24 05:49:30;;;;;;;12.07;8.15;;;;;;;24.30;65.22;99380.50;5051280;28;20036;-37
2022/08/24 05:51:56;;;;;;;13.68;8.48;;;;;;;24.37;64.16;99380.13;5050730;28;20561;-37
2022/08/24 05:54:25;;;;;;;14.45;8.80;;;;;;;24.46;64.01;99386.41;5050989;28;20021;-37
2022/08/24 05:56:51;;;;;;;15.32;8.18;;;;;;;24.44;63.56;99385.94;5051523;28;20021;-36
2022/08/24 05:59:18;;;;;;;13.30;8.65;;;;;;;24.42;64.30;99385.44;5051187;28;20028;-37
2022/08/24 06:01:44;;;;;;;12.57;9.23;;;;;;;24.56;63.89;99396.31;5050706;28;20033;-37
2022/08/24 06:04:09;;;;;;;17.85;10.52;;;;;;;24.55;64.43;99392.78;5051179;28;20021;-37
2022/08/24 06:06:35;;;;;;;15.32;8.30;;;;;;;24.50;63.85;99390.16;5053467;28;20029;-37
2022/08/24 06:09:00;;;;;;;14.07;7.97;;;;;;;24.66;62.20;99387.16;5060119;28;20072;-37
2022/08/24 06:11:32;;;;;;;11.55;8.15;;;;;;;24.75;62.55;99390.72;5053874;28;20425;-37
2022/08/24 06:14:02;;;;;;;13.00;8.65;;;;;;;24.65;62.63;99377.34;5050965;28;20415;-37
2022/08/24 06:16:28;;;;;;;14.10;10.75;;;;;;;24.61;62.45;99381.81;5050773;28;20045;-36
2022/08/24 06:18:54;;;;;;;13.23;8.90;;;;;;;24.74;62.43;99384.50;5051070;28;20025;-38
2022/08/24 06:21:23;;;;;;;14.30;8.65;;;;;;;24.81;62.58;99389.53;5048761;28;20530;-38
2022/08/24 06:23:50;;;;;;;9.70;8.00;;;;;;;24.83;61.84;99373.69;5051317;28;20355;-37
2022/08/24 06:29:01;;;;;;;12.98;7.28;;;;;;;24.91;61.66;99375.66;5050319;28;20117;-38
2022/08/24 06:31:27;;;;;;;11.88;7.28;;;;;;;25.02;61.48;99387.13;5049955;28;20135;-37
2022/08/24 06:33:53;;;;;;;12.52;7.38;;;;;;;25.06;61.44;99392.78;5048869;28;20391;-37
2022/08/24 06:36:20;;;;;;;14.13;8.48;;;;;;;25.06;61.00;99388.13;5050920;28;20036;-38
2022/08/24 06:38:45;;;;;;;15.48;8.88;;;;;;;25.21;61.09;99386.13;5051226;28;20017;-36
2022/08/24 06:41:11;;;;;;;13.07;8.13;;;;;;;25.15;61.12;99378.09;5050372;28;20195;-36
2022/08/24 06:43:39;;;;;;;14.52;8.00;;;;;;;25.07;61.12;99389.72;5050050;28;20017;-36
2022/08/24 06:46:06;;;;;;;10.40;8.10;;;;;;;25.15;61.06;99393.63;5049999;28;20412;-36
2022/08/24 06:48:31;;;;;;;18.42;8.32;;;;;;;25.18;60.87;99395.72;5050132;28;20503;-37
2022/08/24 06:50:57;;;;;;;15.38;8.60;;;;;;;25.16;61.94;99390.59;5050210;28;20021;-36
2022/08/24 06:53:23;;;;;;;15.30;8.05;;;;;;;25.51;61.25;99387.31;5059727;28;20017;-36
2022/08/24 06:55:52;;;;;;;11.80;7.35;;;;;;;25.77;60.22;99389.41;5049666;28;20151;-37
2022/08/24 06:58:18;;;;;;;13.77;8.30;;;;;;;25.36;61.24;99392.06;5050134;28;20472;-37
2022/08/24 07:00:44;;;;;;;20.80;8.07;;;;;;;25.50;61.55;99391.19;5050310;28;20082;-37
2022/08/24 07:03:10;;;;;;;12.85;8.13;;;;;;;25.63;61.32;99390.28;5049977;28;20028;-37
2022/08/24 07:05:36;;;;;;;16.00;8.68;;;;;;;25.66;60.83;99380.69;5049579;28;20453;-37
2022/08/24 07:08:03;;;;;;;15.73;7.75;;;;;;;25.63;60.54;99384.03;5049919;28;20029;-37
2022/08/24 07:10:29;;;;;;;11.75;7.88;;;;;;;25.73;60.43;99386.50;5048677;28;20021;-37
2022/08/24 07:12:55;;;;;;;9.95;7.22;;;;;;;25.90;59.62;99388.50;5048497;28;20044;-38
2022/08/24 07:15:20;;;;;;;12.18;7.35;;;;;;;26.13;59.78;99398.22;5047362;28;20313;-37
2022/08/24 07:17:46;;;;;;;10.68;7.65;;;;;;;26.29;58.60;99392.34;5047257;28;20025;-37
2022/08/24 07:20:13;;;;;;;11.57;7.10;;;;;;;26.42;57.46;99399.59;5047936;28;20053;-37
2022/08/24 07:22:38;;;;;;;9.60;6.47;;;;;;;26.53;56.71;99381.81;5047614;28;20039;-37
2022/08/24 07:25:05;;;;;;;10.90;6.78;;;;;;;26.58;56.86;99391.78;5048214;28;20079;-38
2022/08/24 07:27:31;;;;;;;10.55;6.75;;;;;;;26.59;57.08;99387.94;5048960;28;20028;-37
2022/08/24 07:29:57;;;;;;;12.57;7.22;;;;;;;26.72;56.48;99384.25;5049693;28;20056;-37
2022/08/24 07:32:22;;;;;;;12.13;6.85;;;;;;;26.88;56.27;99392.81;5049431;28;20017;-36
2022/08/24 07:34:48;;;;;;;13.20;6.97;;;;;;;27.23;55.46;99375.59;5049311;28;20515;-36
2022/08/24 07:37:14;;;;;;;12.60;7.10;;;;;;;27.10;55.31;99377.38;5048633;28;20449;-37
2022/08/24 07:39:39;;;;;;;10.77;6.35;;;;;;;27.47;54.03;99386.84;5049118;28;20039;-37
2022/08/24 07:42:05;;;;;;;11.55;7.40;;;;;;;28.11;51.99;99384.38;5048551;28;20083;-37
2022/08/24 07:44:30;;;;;;;10.23;6.97;;;;;;;28.63;52.18;99387.63;5048493;28;20470;-37
2022/08/24 07:46:56;;;;;;;8.05;6.93;;;;;;;28.79;50.86;99385.09;5046738;28;20098;-37
2022/08/24 07:49:21;;;;;;;8.35;6.90;;;;;;;28.78;50.29;99380.75;5049018;28;20052;-37
2022/08/24 07:51:47;;;;;;;8.60;6.22;;;;;;;28.67;49.83;99393.22;5049770;28;20036;-36
2022/08/24 07:54:14;;;;;;;15.70;7.35;;;;;;;28.70;50.42;99391.78;5049772;28;20469;-37
2022/08/24 07:56:40;;;;;;;10.13;7.80;;;;;;;28.79;50.56;99389.78;5047494;28;20021;-35
2022/08/24 07:59:06;;;;;;;9.88;6.07;;;;;;;28.86;49.82;99387.28;5048525;28;20370;-37
2022/08/24 08:01:32;;;;;;;10.35;6.40;;;;;;;29.04;49.82;99393.44;5049142;28;20077;-38
2022/08/24 08:03:57;;;;;;;8.52;5.95;;;;;;;29.17;48.90;99397.88;5049039;28;20066;-37
2022/08/24 08:06:23;;;;;;;14.30;6.18;;;;;;;29.10;49.88;99403.03;5047600;28;20108;-35
2022/08/24 08:08:48;;;;;;;9.25;6.35;;;;;;;29.18;49.63;99398.66;5047598;28;20477;-37
2022/08/24 08:11:14;;;;;;;10.65;6.05;;;;;;;29.28;48.90;99398.22;5047426;28;20504;-37
2022/08/24 08:13:39;;;;;;;9.05;5.65;;;;;;;29.09;49.26;99398.69;5047946;28;20397;-37
2022/08/24 08:16:05;;;;;;;11.75;6.32;;;;;;;28.80;49.89;99397.63;5047499;28;20075;-37
2022/08/24 08:18:30;;;;;;;9.73;5.68;;;;;;;28.44;49.59;99385.31;5047922;28;20029;-37
2022/08/24 08:20:56;;;;;;;14.40;6.03;;;;;;;28.59;49.55;99389.41;5048398;28;20472;-38
2022/08/24 08:26:12;;;;;;;11.48;6.53;;;;;;;28.38;49.98;99397.56;5049467;28;20094;-36
2022/08/24 08:28:38;;;;;;;9.73;6.43;;;;;;;28.39;50.90;99403.88;5048637;28;20109;-37
2022/08/24 08:31:04;;;;;;;14.32;6.07;;;;;;;28.41;49.67;99402.41;5048538;28;20116;-36
2022/08/24 08:33:30;;;;;;;9.40;6.18;;;;;;;28.14;50.61;99391.91;5048821;28;20450;-36
2022/08/24 08:36:06;;;;;;;10.02;5.72;;;;;;;28.23;50.29;99388.00;5048780;28;20044;-37
2022/08/24 08:38:32;;;;;;;16.58;6.20;;;;;;;28.31;50.17;99393.75;5049103;28;20049;-35
2022/08/24 08:41:10;;;;;;;12.20;6.40;;;;;;;28.22;50.90;99396.56;5048722;28;20075;-37
2022/08/24 08:43:43;;;;;;;12.95;6.07;;;;;;;28.06;50.93;99399.84;5049044;28;20083;-38
2022/08/24 08:46:30;;;;;;;11.63;6.30;;;;;;;28.10;51.38;99399.16;5049038;28;20029;-36
2022/08/24 08:49:07;;;;;;;9.45;6.63;;;;;;;28.17;51.59;99389.31;5048827;28;20025;-38
2022/08/24 08:52:04;;;;;;;12.88;6.18;;;;;;;28.37;50.52;99387.78;5048463;28;20508;-37
2022/08/24 08:54:58;;;;;;;9.55;5.95;;;;;;;28.42;50.10;99387.56;5050284;28;20020;-37
2022/08/24 08:57:51;;;;;;;9.00;5.70;;;;;;;28.68;49.39;99388.56;5051904;28;20460;-37
2022/08/24 09:00:23;;;;;;;9.20;5.60;;;;;;;28.83;48.80;99393.44;5051843;28;20025;-37
2022/08/24 09:03:06;;;;;;;10.65;5.93;;;;;;;29.12;48.93;99384.34;5051773;28;20027;-37
2022/08/24 09:06:01;;;;;;;9.43;6.30;;;;;;;29.19;48.27;99390.09;5051969;28;20106;-38
2022/08/24 09:08:41;;;;;;;8.43;5.95;;;;;;;29.32;48.08;99385.47;5051613;28;20114;-37
2022/08/24 09:11:42;;;;;;;8.68;5.70;;;;;;;29.41;48.29;99382.63;5051782;28;20082;-36
2022/08/24 09:14:46;;;;;;;7.70;5.85;;;;;;;29.45;48.10;99386.28;5051686;28;20044;-36
2022/08/24 09:17:27;;;;;;;7.32;5.18;;;;;;;29.65;46.85;99381.09;5031894;28;20080;-36
2022/08/24 09:20:06;;;;;;;8.00;5.65;;;;;;;29.57;46.67;99378.13;5031948;28;20152;-36
2022/08/24 09:22:38;;;;;;;7.45;5.72;;;;;;;29.77;46.50;99381.94;5031806;28;20040;-38
2022/08/24 09:25:19;;;;;;;8.88;5.80;;;;;;;30.37;45.85;99382.31;5031799;28;20056;-36
2022/08/24 09:28:08;;;;;;;12.57;6.10;;;;;;;30.72;45.32;99390.03;5031433;28;20029;-37
2022/08/24 09:30:56;;;;;;;11.27;6.03;;;;;;;31.16;44.58;99386.59;5031729;28;20037;-39
2022/08/24 09:33:44;;;;;;;8.52;5.90;;;;;;;31.11;44.12;99381.34;5031413;28;20431;-38
2022/08/24 09:36:18;;;;;;;7.45;5.32;;;;;;;31.33;43.42;99380.78;5031421;28;20112;-36
2022/08/24 09:38:59;;;;;;;9.00;5.38;;;;;;;31.57;42.36;99373.59;5031760;28;20041;-36
2022/08/24 09:42:33;;;;;;;6.07;5.13;;;;;;;31.80;39.47;99360.00;5031262;28;20112;-37
2022/08/24 09:45:44;;;;;;;12.07;4.90;;;;;;;31.64;41.24;99353.69;4977515;28;20418;-37
2022/08/24 09:48:28;;;;;;;9.25;5.60;;;;;;;31.87;41.38;99348.38;5017540;28;20041;-37
2022/08/24 09:51:22;;;;;;;7.00;5.30;;;;;;;31.86;41.19;99341.28;5031401;28;20063;-37
2022/08/24 09:54:06;;;;;;;5.88;4.90;;;;;;;32.09;41.27;99330.47;5011488;28;20037;-37
2022/08/24 09:56:53;;;;;;;9.35;5.65;;;;;;;32.33;39.82;99332.19;5041227;28;20468;-37
2022/08/24 10:00:12;;;;;;;10.63;5.85;;;;;;;32.32;40.30;99327.81;5051100;28;20151;-36
2022/08/24 10:02:58;;;;;;;7.32;4.88;;;;;;;32.11;38.57;99331.69;5034066;28;20049;-36
2022/08/24 10:05:34;;;;;;;6.15;4.97;;;;;;;32.31;39.06;99327.03;5050537;28;20052;-37
2022/08/24 10:08:27;;;;;;;7.30;4.75;;;;;;;32.53;37.88;99322.75;5050619;28;20037;-37
2022/08/24 10:11:10;;;;;;;6.07;4.13;;;;;;;32.24;38.54;99315.06;5051145;28;20029;-37
2022/08/24 10:13:48;;;;;;;9.10;4.72;;;;;;;32.66;37.47;99311.66;5050747;28;20376;-37
2022/08/24 10:16:34;;;;;;;6.05;4.38;;;;;;;32.66;36.44;99301.44;5050390;28;20095;-36
2022/08/24 10:19:24;;;;;;;6.43;4.25;;;;;;;32.53;36.54;99291.69;5050610;28;20021;-36
2022/08/24 10:22:08;;;;;;;;;;;;;;;32.57;37.47;99286.28;5050981;28;20025;-35
2022/08/24 10:25:00;;;;;;;9.15;4.50;;;;;;;32.92;36.84;99295.25;5050766;28;19923;-36
2022/08/24 10:27:59;;;;;;;8.45;4.47;;;;;;;32.96;37.82;99289.81;5050343;28;20449;-37
2022/08/24 10:30:40;;;;;;;9.57;4.28;;;;;;;33.29;37.33;99293.97;5050607;28;20095;-37
2022/08/24 10:33:25;;;;;;;7.25;4.30;;;;;;;33.26;36.10;99302.97;5050473;28;20028;-38
2022/08/24 10:36:18;;;;;;;9.13;4.10;;;;;;;33.25;36.36;99298.63;5050397;28;20032;-37
2022/08/24 10:41:56;;;;;;;7.88;4.43;;;;;;;33.94;35.90;99292.25;5050723;28;20036;-37
2022/08/24 10:44:48;;;;;;;9.35;4.30;;;;;;;34.26;34.62;99284.47;5050188;28;20036;-37
2022/08/24 10:47:27;;;;;;;9.55;4.28;;;;;;;34.25;34.81;99283.69;5050420;28;20028;-37
2022/08/24 10:50:25;;;;;;;10.43;4.20;;;;;;;34.47;34.48;99278.41;5050280;28;20035;-37
2022/08/24 10:53:09;;;;;;;10.18;3.75;;;;;;;34.12;33.83;99276.75;5050298;28;20036;-37
2022/08/24 10:55:35;;;;;;;10.15;4.03;;;;;;;33.94;34.81;99276.50;5050230;28;20079;-37
2022/08/24 10:58:21;;;;;;;7.28;4.00;;;;;;;34.37;33.11;99265.28;5050430;28;20025;-37
2022/08/24 11:00:47;;;;;;;10.45;3.90;;;;;;;34.49;34.27;99270.53;5049834;28;20107;-37
2022/08/24 11:03:20;;;;;;;12.23;4.10;;;;;;;34.73;34.44;99274.00;5050361;28;20186;-37
2022/08/24 11:06:13;;;;;;;7.75;3.90;;;;;;;34.26;33.48;99265.94;5050023;28;20420;-37
2022/08/24 11:09:15;;;;;;;8.90;3.80;;;;;;;34.07;33.71;99261.31;5049705;28;20024;-37
2022/08/24 11:11:46;;;;;;;6.85;3.60;;;;;;;34.12;33.81;99260.19;5048594;28;20033;-37
2022/08/24 11:14:14;;;;;;;8.40;3.95;;;;;;;34.10;33.39;99259.78;5049858;28;20104;-37
2022/08/24 11:16:43;;;;;;;11.07;3.95;;;;;;;33.76;34.18;99267.97;5047295;28;20041;-37
2022/08/24 11:19:30;;;;;;;7.82;4.10;;;;;;;34.14;33.25;99257.03;5049696;28;20548;-37
2022/08/24 11:22:05;;;;;;;8.52;3.78;;;;;;;34.30;33.67;99265.19;5048464;28;20017;-37
2022/08/24 11:24:42;;;;;;;10.38;4.07;;;;;;;34.16;33.65;99257.53;5061997;28;20016;-37
2022/08/24 11:27:32;;;;;;;8.70;4.25;;;;;;;33.95;33.73;99250.50;5047734;28;20052;-37
2022/08/24 11:30:03;;;;;;;10.48;3.75;;;;;;;34.21;33.93;99246.91;5048992;28;20025;-37
2022/08/24 11:32:51;;;;;;;10.82;3.75;;;;;;;34.28;33.26;99252.53;5049383;28;20040;-38
2022/08/24 11:35:32;;;;;;;12.93;4.15;;;;;;;34.92;32.82;99250.91;5049337;28;20084;-36
2022/08/24 11:38:20;;;;;;;8.02;4.10;;;;;;;34.63;33.90;99247.81;5052442;28;20112;-38
2022/08/24 11:40:54;;;;;;;11.05;3.97;;;;;;;34.51;34.18;99242.56;5055911;28;20455;-37
2022/08/24 11:43:47;;;;;;;9.38;3.70;;;;;;;34.90;32.55;99244.97;5047272;28;20334;-37
2022/08/24 11:46:33;;;;;;;13.52;5.38;;;;;;;34.92;32.55;99248.97;5060920;28;20091;-38
2022/08/24 11:49:38;;;;;;;14.55;9.38;;;;;;;35.01;32.08;99248.63;5043210;28;20476;-37
2022/08/24 11:52:31;;;;;;;12.18;4.45;;;;;;;35.01;33.01;99243.91;5035067;28;20025;-36
2022/08/24 11:55:21;;;;;;;14.98;4.13;;;;;;;34.44;33.76;99243.25;5048136;28;20032;-37
2022/08/24 11:57:47;;;;;;;12.88;4.20;;;;;;;34.00;33.17;99236.38;5059556;28;20025;-37